createdAt,value
2022-08-02T00:04:01.366Z,25.20
2022-08-02T00:09:05.024Z,25.20
2022-08-02T00:14:07.113Z,25.10
2022-08-02T00:19:09.299Z,25.20
2022-08-02T00:24:29.222Z,25.20
2022-08-02T00:29:32.615Z,25.20
2022-08-02T00:34:37.721Z,25.20
2022-08-02T00:39:42.010Z,25.20
2022-08-02T00:44:44.302Z,25.20
2022-08-02T00:49:47.231Z,25.20
2022-08-02T00:54:50.422Z,25.10
2022-08-02T00:59:52.618Z,25.10
2022-08-02T01:04:54.701Z,25.10
2022-08-02T01:09:56.994Z,25.10
2022-08-02T01:15:03.382Z,25.10
2022-08-02T01:20:32.792Z,25.10
2022-08-02T01:26:16.532Z,25.10
2022-08-02T01:31:43.687Z,25.10
2022-08-02T01:36:58.307Z,25.10
2022-08-02T01:42:02.907Z,25.10
2022-08-02T01:47:13.899Z,25.10
2022-08-02T01:52:24.484Z,25.10
2022-08-02T01:57:27.284Z,25.10
2022-08-02T02:02:32.237Z,25.10
2022-08-02T02:07:35.962Z,25.10
2022-08-02T02:12:39.699Z,25.10
2022-08-02T02:17:52.964Z,25.10
2022-08-02T02:23:06.588Z,25.10
2022-08-02T02:28:29.856Z,25.10
2022-08-02T02:33:35.017Z,25.10
2022-08-02T02:38:39.251Z,25.10
2022-08-02T02:43:44.310Z,25.10
2022-08-02T02:48:47.008Z,25.10
2022-08-02T02:54:31.069Z,25.00
2022-08-02T02:59:15.134Z,25.00
2022-08-02T03:04:18.549Z,25.00
2022-08-02T03:09:20.973Z,25.00
2022-08-02T03:14:23.950Z,25.00
2022-08-02T03:19:26.142Z,25.00
2022-08-02T03:24:35.598Z,25.00
2022-08-02T03:29:37.788Z,25.00
2022-08-02T03:34:40.184Z,25.00
2022-08-02T03:39:52.907Z,25.00
2022-08-02T03:45:01.046Z,24.90
2022-08-02T03:50:12.520Z,24.90
2022-08-02T03:55:14.939Z,24.90
2022-08-02T04:00:19.690Z,25.00
2022-08-02T04:05:21.980Z,24.90
2022-08-02T04:10:24.375Z,25.00
2022-08-02T04:15:26.541Z,24.90
2022-08-02T04:20:33.673Z,24.90
2022-08-02T04:25:40.528Z,24.90
2022-08-02T04:30:43.791Z,24.90
2022-08-02T04:35:46.179Z,24.90
2022-08-02T04:40:52.970Z,24.90
2022-08-02T04:45:59.385Z,24.90
2022-08-02T04:51:01.517Z,24.90
2022-08-02T04:56:04.147Z,24.90
2022-08-02T05:01:06.514Z,24.90
2022-08-02T05:06:18.971Z,24.90
2022-08-02T05:11:34.328Z,24.90
2022-08-02T05:16:38.299Z,24.90
2022-08-02T05:21:40.493Z,24.90
2022-08-02T05:26:43.137Z,24.90
2022-08-02T05:31:46.815Z,24.90
2022-08-02T05:36:48.995Z,24.90
2022-08-02T05:41:51.185Z,24.90
2022-08-02T05:46:53.478Z,24.90
2022-08-02T05:52:04.059Z,24.90
2022-08-02T05:57:14.949Z,25.00
2022-08-02T06:02:28.609Z,24.90
2022-08-02T06:07:52.064Z,24.90
2022-08-02T06:13:14.345Z,25.00
2022-08-02T06:18:17.541Z,25.00
2022-08-02T06:23:22.184Z,25.00
2022-08-02T06:28:29.695Z,25.00
2022-08-02T06:33:32.091Z,25.00
2022-08-02T06:38:40.864Z,25.00
2022-08-02T06:43:44.865Z,25.00
2022-08-02T06:48:47.566Z,25.00
2022-08-02T06:53:49.960Z,25.10
2022-08-02T06:58:52.156Z,25.10
2022-08-02T07:03:54.343Z,25.10
2022-08-02T07:09:19.498Z,25.10
2022-08-02T07:14:21.030Z,25.10
2022-08-02T07:19:26.288Z,25.10
2022-08-02T07:24:40.458Z,25.10
2022-08-02T07:29:45.251Z,25.20
2022-08-02T07:34:52.625Z,25.10
2022-08-02T07:39:56.726Z,25.20
2022-08-02T07:44:59.040Z,25.20
2022-08-02T07:50:02.460Z,25.20
2022-08-02T07:55:06.240Z,25.30
2022-08-02T08:00:09.499Z,25.30
2022-08-02T08:05:14.967Z,25.30
2022-08-02T08:10:17.155Z,25.30
2022-08-02T08:15:19.447Z,25.30
2022-08-02T08:20:22.084Z,25.30
2022-08-02T08:25:29.354Z,25.40
2022-08-02T08:30:44.359Z,25.30
2022-08-02T08:35:51.612Z,25.40
2022-08-02T08:41:05.303Z,25.40
2022-08-02T08:46:16.287Z,25.40
2022-08-02T08:51:35.465Z,25.40
2022-08-02T08:56:44.690Z,25.40
2022-08-02T09:01:56.683Z,25.50
2022-08-02T09:07:02.401Z,25.40
2022-08-02T09:12:22.491Z,25.40
2022-08-02T09:17:24.894Z,25.50
2022-08-02T09:22:26.982Z,25.50
2022-08-02T09:27:36.611Z,25.50
2022-08-02T09:32:46.780Z,25.50
2022-08-02T09:37:49.415Z,25.50
2022-08-02T09:42:58.956Z,25.60
2022-08-02T09:48:12.950Z,25.60
2022-08-02T09:53:17.070Z,25.60
2022-08-02T09:58:20.905Z,25.60
2022-08-02T10:03:23.189Z,25.60
2022-08-02T10:08:33.530Z,25.70
2022-08-02T10:13:37.099Z,25.70
2022-08-02T10:18:41.079Z,25.70
2022-08-02T10:23:46.241Z,25.80
2022-08-02T10:28:53.484Z,25.70
2022-08-02T10:33:59.658Z,25.80
2022-08-02T10:39:02.875Z,25.80
2022-08-02T10:44:05.067Z,25.80
2022-08-02T10:49:37.967Z,25.80
2022-08-02T10:54:41.179Z,25.90
2022-08-02T10:59:44.597Z,25.90
2022-08-02T11:04:46.882Z,26.00
2022-08-02T11:09:50.926Z,26.00
2022-08-02T11:15:03.748Z,26.00
2022-08-02T11:20:13.023Z,26.00
2022-08-02T11:25:21.536Z,26.00
2022-08-02T11:30:26.422Z,26.00
2022-08-02T11:35:40.549Z,26.10
2022-08-02T11:40:44.593Z,26.10
2022-08-02T11:45:47.895Z,26.10
2022-08-02T11:51:06.154Z,26.10
2022-08-02T11:56:09.161Z,26.20
2022-08-02T12:01:11.354Z,26.20
2022-08-02T12:06:18.151Z,26.00
2022-08-02T12:11:21.976Z,25.70
2022-08-02T12:16:44.120Z,25.60
2022-08-02T12:21:47.381Z,25.50
2022-08-02T12:26:52.906Z,25.40
2022-08-02T12:31:56.758Z,25.50
2022-08-02T12:37:10.485Z,25.70
2022-08-02T12:42:14.900Z,25.90
2022-08-02T12:47:17.630Z,26.00
2022-08-02T12:52:24.527Z,26.00
2022-08-02T12:57:26.879Z,26.10
2022-08-02T13:02:30.442Z,26.10
2022-08-02T13:07:33.701Z,26.10
2022-08-02T13:12:39.275Z,26.20
2022-08-02T13:17:41.827Z,26.20
2022-08-02T13:22:52.929Z,26.20
2022-08-02T13:27:55.824Z,26.20
2022-08-02T13:33:01.318Z,26.20
2022-08-02T13:38:04.203Z,26.20
2022-08-02T13:43:06.388Z,26.30
2022-08-02T13:48:16.840Z,26.40
2022-08-02T13:58:38.951Z,26.40
2022-08-02T14:04:07.402Z,26.30
2022-08-02T14:09:05.637Z,26.40
2022-08-02T14:14:07.937Z,26.40
2022-08-02T14:19:23.630Z,26.40
2022-08-02T14:24:26.146Z,26.40
2022-08-02T14:29:29.853Z,26.40
2022-08-02T14:34:34.929Z,26.40
2022-08-02T14:39:43.001Z,26.40
2022-08-02T14:45:00.984Z,26.40
2022-08-02T14:50:04.359Z,26.40
2022-08-02T14:55:07.310Z,26.40
2022-08-02T15:00:10.525Z,26.40
2022-08-02T15:05:13.854Z,26.40
2022-08-02T15:10:16.545Z,26.40
2022-08-02T15:15:21.505Z,26.40
2022-08-02T15:20:25.785Z,26.40
2022-08-02T15:25:28.950Z,26.40
2022-08-02T15:30:31.373Z,26.40
2022-08-02T15:35:33.840Z,26.40
2022-08-02T15:40:36.237Z,26.40
2022-08-02T15:45:40.062Z,26.50
2022-08-02T15:50:42.359Z,26.40
2022-08-02T15:55:52.037Z,26.40
2022-08-02T16:01:07.668Z,26.40
2022-08-02T16:06:10.417Z,26.50
2022-08-02T16:11:12.605Z,26.40
2022-08-02T16:16:17.252Z,26.40
2022-08-02T16:21:20.516Z,26.40
2022-08-02T16:26:25.975Z,26.50
2022-08-02T16:31:28.551Z,26.50
2022-08-02T16:36:31.540Z,26.40
2022-08-02T16:41:50.540Z,26.50
2022-08-02T16:46:55.395Z,26.40
2022-08-02T16:51:58.327Z,26.40
2022-08-02T16:57:07.198Z,26.40
2022-08-02T17:02:18.022Z,26.40
2022-08-02T17:08:15.315Z,26.50
2022-08-02T17:12:46.330Z,26.40
2022-08-02T17:17:53.942Z,26.40
2022-08-02T17:23:00.532Z,26.40
2022-08-02T17:28:03.649Z,26.40
2022-08-02T17:33:05.938Z,26.40
2022-08-02T17:38:08.948Z,26.40
2022-08-02T17:43:14.536Z,26.40
2022-08-02T17:48:21.759Z,26.40
2022-08-02T17:53:36.434Z,26.40
2022-08-02T17:58:38.811Z,26.40
2022-08-02T18:03:54.745Z,26.40
2022-08-02T18:08:57.702Z,26.40
2022-08-02T18:14:00.201Z,26.40
2022-08-02T18:19:02.983Z,26.40
2022-08-02T18:24:19.109Z,26.40
2022-08-02T18:29:30.128Z,26.40
2022-08-02T18:34:47.585Z,26.40
2022-08-02T18:39:51.301Z,26.40
2022-08-02T18:44:54.069Z,26.40
2022-08-02T18:49:56.792Z,26.30
2022-08-02T18:54:59.168Z,26.30
2022-08-02T19:00:01.952Z,26.30
2022-08-02T19:05:07.040Z,26.30
2022-08-02T19:10:10.240Z,26.30
2022-08-02T19:15:16.638Z,26.30
2022-08-02T19:20:20.354Z,26.30
2022-08-02T19:25:27.961Z,26.30
2022-08-02T19:30:35.920Z,26.30
2022-08-02T19:36:02.129Z,26.20
2022-08-02T19:41:09.754Z,26.20
2022-08-02T19:46:26.359Z,26.30
2022-08-02T19:51:55.282Z,26.20
2022-08-02T19:56:58.382Z,26.20
2022-08-02T20:02:01.875Z,26.20
2022-08-02T20:07:04.494Z,26.20
2022-08-02T20:12:10.339Z,26.20
2022-08-02T20:17:22.997Z,26.20
2022-08-02T20:22:29.488Z,26.20
2022-08-02T20:27:31.675Z,26.20
2022-08-02T20:32:34.682Z,26.20
2022-08-02T20:38:00.892Z,26.10
2022-08-02T20:43:00.448Z,26.10
2022-08-02T20:48:02.950Z,26.10
2022-08-02T20:53:07.509Z,26.10
2022-08-02T20:58:12.211Z,26.10
2022-08-02T21:03:20.058Z,26.10
2022-08-02T21:08:26.447Z,26.10
2022-08-02T21:13:29.136Z,26.10
2022-08-02T21:18:40.994Z,26.10
2022-08-02T21:24:01.697Z,26.00
2022-08-02T21:29:04.504Z,26.10
2022-08-02T21:34:21.639Z,26.00
2022-08-02T21:39:33.091Z,26.00
2022-08-02T21:44:50.712Z,26.00
2022-08-02T21:50:10.353Z,26.00
2022-08-02T21:55:24.399Z,26.00
2022-08-02T22:00:59.800Z,26.00
2022-08-02T22:06:11.496Z,26.00
2022-08-02T22:11:24.624Z,26.00
2022-08-02T22:16:38.766Z,26.00
2022-08-02T22:21:54.829Z,26.00
2022-08-02T22:27:06.640Z,26.00
2022-08-02T22:32:45.785Z,26.00
2022-08-02T22:38:16.326Z,25.90
2022-08-02T22:43:23.638Z,26.00
2022-08-02T22:48:40.322Z,25.90
2022-08-02T22:53:51.962Z,25.90
2022-08-02T23:04:27.686Z,25.90
2022-08-02T23:09:36.082Z,25.90
2022-08-02T23:14:51.124Z,25.90
2022-08-02T23:19:58.155Z,25.90
2022-08-02T23:25:07.892Z,25.90
2022-08-02T23:30:24.950Z,25.90
2022-08-02T23:35:42.272Z,25.90
2022-08-02T23:41:06.800Z,25.80
2022-08-02T23:46:17.116Z,25.80
2022-08-02T23:51:22.515Z,25.80
2022-08-02T23:56:29.854Z,25.80
